CCM48EX LFKB-EBCI
Flight info
| Callsign | CCM48EX |
|---|---|
| Flight time | 1h 23m |
| Altitude | 34000 |
| Route | MEGER2V MEGER Z911 OLETI DCT AOSTA DCT ORSUD DCT MOLUS DCT GILIR/N0462F280 DCT PENDU DCT IXILU DCT EPL DCT ROUSY/N0468F310 M624 DIK/N0465F320 N852 GESLO/N0461F280 N852 LNO LNO8B |
| Aircraft | A320/M-SDFGIJ1RWY/S |
Departure
| Time | 2026-04-25 12:10 |
|---|---|
| Airport | Bastia-Poretta International airport (LFKB) |
Arrival
| Time | 2026-04-25 13:33 |
|---|---|
| Airport | Brussels South Charleroi Airport (EBCI) |
| Time | Latitude | Longitude | Altitude | Speed | Heading |
|---|---|---|---|---|---|
| 2026-04-25 11:44 | 42.54830 | 9.48174 | 35 ft | 0 kts | 282° |
| 2026-04-25 12:06 | 42.54833 | 9.48169 | 35 ft | 2 kts | 311° |
| 2026-04-25 12:06 | 42.54839 | 9.48180 | 34 ft | 2 kts | 51° |
| 2026-04-25 12:06 | 42.54843 | 9.48206 | 35 ft | 5 kts | 80° |
| 2026-04-25 12:06 | 42.54840 | 9.48269 | 35 ft | 8 kts | 119° |
| 2026-04-25 12:07 | 42.54778 | 9.48300 | 33 ft | 12 kts | 160° |
| 2026-04-25 12:07 | 42.54690 | 9.48343 | 35 ft | 16 kts | 160° |
| 2026-04-25 12:07 | 42.54577 | 9.48379 | 35 ft | 18 kts | 167° |
| 2026-04-25 12:07 | 42.54452 | 9.48415 | 35 ft | 19 kts | 174° |
| 2026-04-25 12:08 | 42.54320 | 9.48453 | 35 ft | 20 kts | 161° |
| 2026-04-25 12:08 | 42.54201 | 9.48501 | 35 ft | 15 kts | 163° |
| 2026-04-25 12:08 | 42.54133 | 9.48589 | 35 ft | 14 kts | 119° |
| 2026-04-25 12:08 | 42.54139 | 9.48714 | 34 ft | 14 kts | 53° |
| 2026-04-25 12:09 | 42.54215 | 9.48802 | 35 ft | 15 kts | 16° |
| 2026-04-25 12:09 | 42.54261 | 9.48794 | 35 ft | 0 kts | 343° |
| 2026-04-25 12:09 | 42.54263 | 9.48793 | 35 ft | 7 kts | 343° |
| 2026-04-25 12:09 | 42.54608 | 9.48651 | 32 ft | 92 kts | 343° |
| 2026-04-25 12:10 | 42.55431 | 9.48305 | 38 ft | 154 kts | 343° |
| 2026-04-25 12:10 | 42.56492 | 9.47867 | 563 ft | 158 kts | 346° |
| 2026-04-25 12:10 | 42.57640 | 9.47533 | 987 ft | 180 kts | 353° |
| 2026-04-25 12:10 | 42.58962 | 9.47367 | 1313 ft | 202 kts | 359° |
| 2026-04-25 12:11 | 42.60448 | 9.47432 | 1634 ft | 226 kts | 6° |
| 2026-04-25 12:11 | 42.61538 | 9.47658 | 1916 ft | 243 kts | 12° |
| 2026-04-25 12:11 | 42.63233 | 9.48328 | 2514 ft | 261 kts | 21° |
| 2026-04-25 12:11 | 42.64922 | 9.49210 | 3406 ft | 265 kts | 20° |
| 2026-04-25 12:12 | 42.66666 | 9.50108 | 4286 ft | 270 kts | 20° |
| 2026-04-25 12:12 | 42.68479 | 9.50841 | 5141 ft | 275 kts | 5° |
| 2026-04-25 12:12 | 42.70371 | 9.50609 | 5984 ft | 275 kts | 339° |
| 2026-04-25 12:12 | 42.72114 | 9.49547 | 6881 ft | 276 kts | 332° |
| 2026-04-25 12:13 | 42.73848 | 9.48400 | 7727 ft | 279 kts | 332° |
| 2026-04-25 12:13 | 42.75604 | 9.47234 | 8570 ft | 282 kts | 332° |
| 2026-04-25 12:13 | 42.77384 | 9.46053 | 9411 ft | 286 kts | 332° |
| 2026-04-25 12:13 | 42.79185 | 9.44860 | 10211 ft | 291 kts | 332° |
| 2026-04-25 12:14 | 42.81075 | 9.43605 | 10484 ft | 314 kts | 333° |
| 2026-04-25 12:14 | 42.83116 | 9.42252 | 10684 ft | 338 kts | 333° |
| 2026-04-25 12:14 | 42.85307 | 9.40800 | 10849 ft | 362 kts | 333° |
| 2026-04-25 12:14 | 42.87640 | 9.39253 | 10983 ft | 383 kts | 333° |
| 2026-04-25 12:15 | 42.90072 | 9.37636 | 11433 ft | 393 kts | 333° |
| 2026-04-25 12:15 | 42.92546 | 9.35994 | 12029 ft | 397 kts | 333° |
| 2026-04-25 12:15 | 42.95046 | 9.34338 | 12667 ft | 401 kts | 333° |
| 2026-04-25 12:15 | 42.97568 | 9.32663 | 13286 ft | 405 kts | 333° |
| 2026-04-25 12:16 | 43.00119 | 9.30965 | 13901 ft | 409 kts | 333° |
| 2026-04-25 12:16 | 43.02692 | 9.29255 | 14441 ft | 413 kts | 333° |
| 2026-04-25 12:16 | 43.05286 | 9.27527 | 14957 ft | 417 kts | 333° |
| 2026-04-25 12:16 | 43.07910 | 9.25774 | 15448 ft | 422 kts | 333° |
| 2026-04-25 12:17 | 43.10558 | 9.24003 | 15940 ft | 426 kts | 332° |
| 2026-04-25 12:17 | 43.13232 | 9.22211 | 16425 ft | 429 kts | 333° |
| 2026-04-25 12:17 | 43.15892 | 9.20431 | 16887 ft | 433 kts | 332° |
| 2026-04-25 12:17 | 43.18609 | 9.18613 | 17361 ft | 437 kts | 332° |
| 2026-04-25 12:18 | 43.21351 | 9.16776 | 17795 ft | 441 kts | 332° |
| 2026-04-25 12:18 | 43.24118 | 9.14918 | 18249 ft | 444 kts | 332° |
| 2026-04-25 12:18 | 43.26901 | 9.13046 | 18662 ft | 447 kts | 332° |
| 2026-04-25 12:18 | 43.29695 | 9.11164 | 19086 ft | 448 kts | 332° |
| 2026-04-25 12:19 | 43.34392 | 9.07999 | 19762 ft | 450 kts | 332° |
| 2026-04-25 12:19 | 43.38114 | 9.05491 | 20300 ft | 451 kts | 332° |
| 2026-04-25 12:19 | 43.40938 | 9.03587 | 20662 ft | 452 kts | 332° |
| 2026-04-25 12:20 | 43.43768 | 9.01674 | 21002 ft | 454 kts | 332° |
| 2026-04-25 12:20 | 43.46610 | 8.99747 | 21336 ft | 456 kts | 332° |
| 2026-04-25 12:20 | 43.49455 | 8.97814 | 21688 ft | 456 kts | 332° |
| 2026-04-25 12:20 | 43.52302 | 8.95878 | 22070 ft | 456 kts | 332° |
| 2026-04-25 12:21 | 43.55155 | 8.93944 | 22397 ft | 458 kts | 332° |
| 2026-04-25 12:21 | 43.58016 | 8.92005 | 22697 ft | 460 kts | 332° |
| 2026-04-25 12:21 | 43.60894 | 8.90051 | 22989 ft | 461 kts | 332° |
| 2026-04-25 12:21 | 43.63773 | 8.88088 | 23281 ft | 462 kts | 332° |
| 2026-04-25 12:22 | 43.66655 | 8.86114 | 23538 ft | 464 kts | 332° |
| 2026-04-25 12:22 | 43.69558 | 8.84122 | 23775 ft | 466 kts | 332° |
| 2026-04-25 12:22 | 43.72428 | 8.82154 | 23991 ft | 467 kts | 332° |
| 2026-04-25 12:22 | 43.75340 | 8.80156 | 24207 ft | 468 kts | 332° |
| 2026-04-25 12:23 | 43.78257 | 8.78156 | 24406 ft | 468 kts | 332° |
| 2026-04-25 12:23 | 43.81178 | 8.76153 | 24594 ft | 469 kts | 332° |
| 2026-04-25 12:23 | 43.84103 | 8.74151 | 24846 ft | 469 kts | 332° |
| 2026-04-25 12:23 | 43.87027 | 8.72149 | 25094 ft | 468 kts | 332° |
| 2026-04-25 12:24 | 43.89941 | 8.70149 | 25357 ft | 467 kts | 332° |
| 2026-04-25 12:24 | 43.92846 | 8.68149 | 25644 ft | 465 kts | 332° |
| 2026-04-25 12:24 | 43.95737 | 8.66151 | 25933 ft | 464 kts | 332° |
| 2026-04-25 12:24 | 43.98628 | 8.64153 | 26213 ft | 463 kts | 332° |
| 2026-04-25 12:25 | 44.01511 | 8.62161 | 26492 ft | 463 kts | 332° |
| 2026-04-25 12:25 | 44.04389 | 8.60171 | 26776 ft | 462 kts | 332° |
| 2026-04-25 12:25 | 44.07267 | 8.58179 | 27066 ft | 461 kts | 332° |
| 2026-04-25 12:25 | 44.10136 | 8.56190 | 27354 ft | 460 kts | 332° |
| 2026-04-25 12:26 | 44.12999 | 8.54202 | 27664 ft | 459 kts | 332° |
| 2026-04-25 12:26 | 44.15856 | 8.52217 | 27980 ft | 458 kts | 332° |
| 2026-04-25 12:26 | 44.18697 | 8.50238 | 28290 ft | 457 kts | 332° |
| 2026-04-25 12:26 | 44.21538 | 8.48254 | 28594 ft | 456 kts | 332° |
| 2026-04-25 12:27 | 44.24377 | 8.46273 | 28904 ft | 456 kts | 332° |
| 2026-04-25 12:27 | 44.27210 | 8.44296 | 29214 ft | 455 kts | 332° |
| 2026-04-25 12:27 | 44.30007 | 8.42341 | 29521 ft | 455 kts | 332° |
| 2026-04-25 12:27 | 44.32831 | 8.40364 | 29861 ft | 454 kts | 331° |
| 2026-04-25 12:28 | 44.35647 | 8.38392 | 30198 ft | 452 kts | 331° |
| 2026-04-25 12:28 | 44.38458 | 8.36421 | 30471 ft | 452 kts | 331° |
| 2026-04-25 12:28 | 44.41263 | 8.34454 | 30733 ft | 451 kts | 331° |
| 2026-04-25 12:28 | 44.44067 | 8.32488 | 30997 ft | 450 kts | 332° |
| 2026-04-25 12:29 | 44.46867 | 8.30521 | 31266 ft | 450 kts | 331° |
| 2026-04-25 12:29 | 44.49659 | 8.28552 | 31537 ft | 449 kts | 331° |
| 2026-04-25 12:29 | 44.52446 | 8.26584 | 31803 ft | 449 kts | 331° |
| 2026-04-25 12:29 | 44.55234 | 8.24612 | 32070 ft | 448 kts | 331° |
| 2026-04-25 12:30 | 44.58020 | 8.22640 | 32347 ft | 448 kts | 331° |
| 2026-04-25 12:30 | 44.60802 | 8.20672 | 32627 ft | 447 kts | 331° |
| 2026-04-25 12:30 | 44.63584 | 8.18707 | 32886 ft | 447 kts | 331° |
| 2026-04-25 12:30 | 44.66357 | 8.16750 | 33155 ft | 447 kts | 331° |
| 2026-04-25 12:31 | 44.69133 | 8.14785 | 33433 ft | 446 kts | 331° |
| 2026-04-25 12:31 | 44.71898 | 8.12824 | 33716 ft | 445 kts | 331° |
| 2026-04-25 12:31 | 44.74662 | 8.10859 | 33983 ft | 445 kts | 330° |
| 2026-04-25 12:32 | 44.80212 | 8.06902 | 34051 ft | 449 kts | 330° |
| 2026-04-25 12:32 | 44.85797 | 8.02907 | 34047 ft | 450 kts | 330° |
| 2026-04-25 12:33 | 44.91389 | 7.98908 | 34052 ft | 451 kts | 330° |
| 2026-04-25 12:33 | 44.96948 | 7.94930 | 34046 ft | 450 kts | 330° |
| 2026-04-25 12:34 | 45.02570 | 7.90887 | 34050 ft | 450 kts | 330° |
| 2026-04-25 12:34 | 45.08152 | 7.86868 | 34055 ft | 450 kts | 330° |
| 2026-04-25 12:35 | 45.13701 | 7.82866 | 34071 ft | 450 kts | 330° |
| 2026-04-25 12:35 | 45.19273 | 7.78831 | 34073 ft | 450 kts | 330° |
| 2026-04-25 12:36 | 45.24845 | 7.74795 | 34072 ft | 449 kts | 330° |
| 2026-04-25 12:36 | 45.30417 | 7.70764 | 34067 ft | 449 kts | 330° |
| 2026-04-25 12:37 | 45.35966 | 7.66710 | 34085 ft | 448 kts | 330° |
| 2026-04-25 12:37 | 45.41508 | 7.62655 | 34087 ft | 447 kts | 330° |
| 2026-04-25 12:38 | 45.47037 | 7.58615 | 34091 ft | 447 kts | 330° |
| 2026-04-25 12:38 | 45.52560 | 7.54575 | 34109 ft | 446 kts | 330° |
| 2026-04-25 12:39 | 45.58078 | 7.50537 | 34117 ft | 445 kts | 330° |
| 2026-04-25 12:39 | 45.63574 | 7.46489 | 34119 ft | 444 kts | 329° |
| 2026-04-25 12:40 | 45.69022 | 7.42458 | 34123 ft | 444 kts | 329° |
| 2026-04-25 12:40 | 45.74510 | 7.38401 | 34058 ft | 442 kts | 329° |
| 2026-04-25 12:41 | 45.79932 | 7.34269 | 34055 ft | 439 kts | 324° |
| 2026-04-25 12:41 | 45.84913 | 7.29246 | 34063 ft | 437 kts | 322° |
| 2026-04-25 12:42 | 45.89863 | 7.24205 | 34084 ft | 436 kts | 322° |
| 2026-04-25 12:42 | 45.94780 | 7.19198 | 34120 ft | 436 kts | 322° |
| 2026-04-25 12:43 | 45.99715 | 7.14159 | 34138 ft | 434 kts | 322° |
| 2026-04-25 12:43 | 46.07088 | 7.06583 | 34123 ft | 434 kts | 322° |
| 2026-04-25 12:44 | 46.11991 | 7.01530 | 34116 ft | 433 kts | 322° |
| 2026-04-25 12:45 | 46.19343 | 6.93958 | 34138 ft | 432 kts | 322° |
| 2026-04-25 12:45 | 46.26671 | 6.86371 | 34140 ft | 432 kts | 322° |
| 2026-04-25 12:46 | 46.31546 | 6.81309 | 34125 ft | 431 kts | 322° |
| 2026-04-25 12:46 | 46.36430 | 6.76239 | 34113 ft | 432 kts | 322° |
| 2026-04-25 12:47 | 46.41315 | 6.71154 | 34118 ft | 433 kts | 322° |
| 2026-04-25 12:47 | 46.46409 | 6.66497 | 34115 ft | 435 kts | 332° |
| 2026-04-25 12:48 | 46.51836 | 6.62681 | 34118 ft | 436 kts | 332° |
| 2026-04-25 12:48 | 46.57300 | 6.58852 | 34116 ft | 436 kts | 332° |
| 2026-04-25 12:49 | 46.62758 | 6.55011 | 34117 ft | 436 kts | 332° |
| 2026-04-25 12:49 | 46.68215 | 6.51136 | 34117 ft | 436 kts | 332° |
| 2026-04-25 12:50 | 46.73676 | 6.47248 | 34105 ft | 437 kts | 332° |
| 2026-04-25 12:50 | 46.79155 | 6.43358 | 34114 ft | 438 kts | 332° |
| 2026-04-25 12:51 | 46.84633 | 6.39462 | 34121 ft | 438 kts | 332° |
| 2026-04-25 12:51 | 46.90078 | 6.35573 | 34132 ft | 438 kts | 332° |
| 2026-04-25 12:52 | 46.95554 | 6.31646 | 34131 ft | 438 kts | 332° |
| 2026-04-25 12:52 | 47.01039 | 6.27722 | 34140 ft | 438 kts | 332° |
| 2026-04-25 12:53 | 47.06511 | 6.23788 | 34143 ft | 438 kts | 332° |
| 2026-04-25 12:53 | 47.11977 | 6.19838 | 34141 ft | 438 kts | 332° |
| 2026-04-25 12:54 | 47.17449 | 6.15882 | 34131 ft | 438 kts | 332° |
| 2026-04-25 12:54 | 47.22928 | 6.11926 | 34133 ft | 439 kts | 332° |
| 2026-04-25 12:55 | 47.26554 | 6.09305 | 34134 ft | 438 kts | 332° |
| 2026-04-25 12:55 | 47.33993 | 6.04418 | 34135 ft | 441 kts | 342° |
| 2026-04-25 12:56 | 47.40097 | 6.03352 | 34136 ft | 446 kts | 358° |
| 2026-04-25 12:56 | 47.46272 | 6.03504 | 34142 ft | 446 kts | 358° |
| 2026-04-25 12:57 | 47.52484 | 6.03636 | 34141 ft | 446 kts | 358° |
| 2026-04-25 12:57 | 47.58687 | 6.03772 | 34137 ft | 446 kts | 358° |
| 2026-04-25 12:58 | 47.64882 | 6.03920 | 34147 ft | 445 kts | 358° |
| 2026-04-25 12:58 | 47.71074 | 6.04051 | 34140 ft | 445 kts | 358° |
| 2026-04-25 12:59 | 47.77267 | 6.04197 | 34135 ft | 445 kts | 358° |
| 2026-04-25 12:59 | 47.83457 | 6.04404 | 34141 ft | 445 kts | 358° |
| 2026-04-25 13:00 | 47.87557 | 6.04550 | 34150 ft | 445 kts | 358° |
| 2026-04-25 13:00 | 47.95786 | 6.04834 | 34148 ft | 444 kts | 358° |
| 2026-04-25 13:01 | 48.01970 | 6.05026 | 34148 ft | 444 kts | 358° |
| 2026-04-25 13:01 | 48.08146 | 6.05213 | 34155 ft | 444 kts | 359° |
| 2026-04-25 13:02 | 48.13283 | 6.05368 | 34151 ft | 444 kts | 358° |
| 2026-04-25 13:02 | 48.19468 | 6.05556 | 34148 ft | 444 kts | 359° |
| 2026-04-25 13:03 | 48.25653 | 6.05756 | 34146 ft | 444 kts | 359° |
| 2026-04-25 13:03 | 48.31834 | 6.05949 | 34153 ft | 444 kts | 359° |
| 2026-04-25 13:04 | 48.38011 | 6.06174 | 34148 ft | 444 kts | 359° |
| 2026-04-25 13:04 | 48.44186 | 6.06478 | 34137 ft | 444 kts | 359° |
| 2026-04-25 13:05 | 48.50323 | 6.06789 | 34155 ft | 444 kts | 359° |
| 2026-04-25 13:05 | 48.56503 | 6.07097 | 34174 ft | 444 kts | 359° |
| 2026-04-25 13:06 | 48.62671 | 6.07378 | 34172 ft | 443 kts | 359° |
| 2026-04-25 13:06 | 48.68837 | 6.07666 | 34147 ft | 443 kts | 359° |
| 2026-04-25 13:07 | 48.75002 | 6.07963 | 34145 ft | 443 kts | 359° |
| 2026-04-25 13:07 | 48.81157 | 6.08255 | 34147 ft | 442 kts | 359° |
| 2026-04-25 13:08 | 48.87315 | 6.08552 | 34148 ft | 442 kts | 359° |
| 2026-04-25 13:08 | 48.93428 | 6.08846 | 34154 ft | 442 kts | 359° |
| 2026-04-25 13:09 | 48.99583 | 6.09148 | 34146 ft | 442 kts | 359° |
| 2026-04-25 13:09 | 49.05731 | 6.09442 | 34150 ft | 442 kts | 359° |
| 2026-04-25 13:10 | 49.11878 | 6.09743 | 34145 ft | 442 kts | 359° |
| 2026-04-25 13:10 | 49.18024 | 6.10051 | 34153 ft | 442 kts | 359° |
| 2026-04-25 13:11 | 49.24175 | 6.10345 | 34147 ft | 442 kts | 359° |
| 2026-04-25 13:11 | 49.27214 | 6.10038 | 34144 ft | 435 kts | 346° |
| 2026-04-25 13:11 | 49.30037 | 6.08649 | 34064 ft | 418 kts | 336° |
| 2026-04-25 13:12 | 49.32687 | 6.06944 | 33783 ft | 407 kts | 335° |
| 2026-04-25 13:12 | 49.35219 | 6.05270 | 33511 ft | 397 kts | 335° |
| 2026-04-25 13:12 | 49.37724 | 6.03586 | 33248 ft | 390 kts | 334° |
| 2026-04-25 13:12 | 49.39395 | 6.02459 | 33002 ft | 386 kts | 334° |
| 2026-04-25 13:13 | 49.42625 | 6.00282 | 32404 ft | 381 kts | 334° |
| 2026-04-25 13:13 | 49.45039 | 5.98659 | 31944 ft | 377 kts | 334° |
| 2026-04-25 13:13 | 49.47432 | 5.97053 | 31498 ft | 373 kts | 334° |
| 2026-04-25 13:13 | 49.49798 | 5.95468 | 31061 ft | 370 kts | 334° |
| 2026-04-25 13:14 | 49.52151 | 5.93889 | 30623 ft | 366 kts | 334° |
| 2026-04-25 13:14 | 49.54474 | 5.92328 | 30198 ft | 363 kts | 334° |
| 2026-04-25 13:14 | 49.56780 | 5.90780 | 29745 ft | 359 kts | 334° |
| 2026-04-25 13:14 | 49.59054 | 5.89255 | 29346 ft | 354 kts | 334° |
| 2026-04-25 13:15 | 49.61302 | 5.87747 | 28950 ft | 350 kts | 335° |
| 2026-04-25 13:15 | 49.63521 | 5.86255 | 28568 ft | 345 kts | 334° |
| 2026-04-25 13:15 | 49.65709 | 5.84781 | 28179 ft | 340 kts | 334° |
| 2026-04-25 13:15 | 49.67861 | 5.83330 | 27812 ft | 336 kts | 334° |
| 2026-04-25 13:16 | 49.69986 | 5.81895 | 27437 ft | 331 kts | 334° |
| 2026-04-25 13:16 | 49.72086 | 5.80473 | 27064 ft | 327 kts | 334° |
| 2026-04-25 13:16 | 49.74158 | 5.79068 | 26677 ft | 324 kts | 334° |
| 2026-04-25 13:16 | 49.76208 | 5.77677 | 26304 ft | 320 kts | 334° |
| 2026-04-25 13:17 | 49.78236 | 5.76304 | 25919 ft | 317 kts | 334° |
| 2026-04-25 13:17 | 49.80248 | 5.74946 | 25536 ft | 314 kts | 334° |
| 2026-04-25 13:17 | 49.82236 | 5.73596 | 25149 ft | 311 kts | 334° |
| 2026-04-25 13:17 | 49.84211 | 5.72252 | 24760 ft | 309 kts | 334° |
| 2026-04-25 13:18 | 49.86178 | 5.70911 | 24362 ft | 307 kts | 334° |
| 2026-04-25 13:18 | 49.88132 | 5.69579 | 23959 ft | 306 kts | 334° |
| 2026-04-25 13:18 | 49.90075 | 5.68256 | 23538 ft | 305 kts | 334° |
| 2026-04-25 13:18 | 49.92013 | 5.66933 | 23117 ft | 302 kts | 334° |
| 2026-04-25 13:19 | 49.93928 | 5.65624 | 22736 ft | 299 kts | 334° |
| 2026-04-25 13:19 | 49.95822 | 5.64329 | 22360 ft | 296 kts | 334° |
| 2026-04-25 13:19 | 49.97705 | 5.63041 | 21992 ft | 295 kts | 334° |
| 2026-04-25 13:19 | 49.98948 | 5.62189 | 21740 ft | 295 kts | 334° |
| 2026-04-25 13:20 | 50.01457 | 5.60471 | 21252 ft | 294 kts | 334° |
| 2026-04-25 13:20 | 50.03324 | 5.59188 | 20886 ft | 294 kts | 334° |
| 2026-04-25 13:20 | 50.05193 | 5.57902 | 20521 ft | 294 kts | 335° |
| 2026-04-25 13:20 | 50.07063 | 5.56617 | 20154 ft | 294 kts | 335° |
| 2026-04-25 13:21 | 50.08915 | 5.55349 | 19793 ft | 296 kts | 335° |
| 2026-04-25 13:21 | 50.10802 | 5.54053 | 19419 ft | 296 kts | 335° |
| 2026-04-25 13:21 | 50.12686 | 5.52756 | 19059 ft | 296 kts | 335° |
| 2026-04-25 13:21 | 50.14572 | 5.51456 | 18691 ft | 297 kts | 335° |
| 2026-04-25 13:22 | 50.16458 | 5.50155 | 18308 ft | 298 kts | 335° |
| 2026-04-25 13:22 | 50.18359 | 5.48844 | 17923 ft | 297 kts | 335° |
| 2026-04-25 13:22 | 50.20246 | 5.47539 | 17571 ft | 296 kts | 335° |
| 2026-04-25 13:23 | 50.23860 | 5.44211 | 16089 ft | 309 kts | 314° |
| 2026-04-25 13:23 | 50.25114 | 5.41494 | 15274 ft | 310 kts | 299° |
| 2026-04-25 13:23 | 50.26166 | 5.38537 | 14474 ft | 312 kts | 299° |
| 2026-04-25 13:23 | 50.27464 | 5.35848 | 13717 ft | 311 kts | 318° |
| 2026-04-25 13:24 | 50.29151 | 5.33765 | 13008 ft | 306 kts | 322° |
| 2026-04-25 13:24 | 50.30709 | 5.31550 | 12431 ft | 302 kts | 307° |
| 2026-04-25 13:24 | 50.31757 | 5.28712 | 12002 ft | 301 kts | 297° |
| 2026-04-25 13:24 | 50.32685 | 5.25787 | 11598 ft | 300 kts | 297° |
| 2026-04-25 13:25 | 50.33603 | 5.22865 | 11202 ft | 298 kts | 297° |
| 2026-04-25 13:25 | 50.34512 | 5.19956 | 10800 ft | 297 kts | 297° |
| 2026-04-25 13:25 | 50.35420 | 5.17050 | 10399 ft | 296 kts | 297° |
| 2026-04-25 13:25 | 50.36324 | 5.14157 | 9993 ft | 295 kts | 297° |
| 2026-04-25 13:26 | 50.37206 | 5.11329 | 9581 ft | 288 kts | 297° |
| 2026-04-25 13:26 | 50.38063 | 5.08567 | 9204 ft | 276 kts | 297° |
| 2026-04-25 13:26 | 50.38908 | 5.05838 | 8833 ft | 274 kts | 297° |
| 2026-04-25 13:26 | 50.39726 | 5.03195 | 8468 ft | 272 kts | 297° |
| 2026-04-25 13:27 | 50.40561 | 5.00505 | 8105 ft | 270 kts | 297° |
| 2026-04-25 13:27 | 50.41373 | 4.97892 | 7748 ft | 269 kts | 297° |
| 2026-04-25 13:27 | 50.42189 | 4.95257 | 7391 ft | 268 kts | 297° |
| 2026-04-25 13:27 | 50.43001 | 4.92630 | 7032 ft | 267 kts | 296° |
| 2026-04-25 13:28 | 50.43810 | 4.90014 | 6676 ft | 266 kts | 296° |
| 2026-04-25 13:28 | 50.44083 | 4.89132 | 6549 ft | 266 kts | 296° |
| 2026-04-25 13:28 | 50.45416 | 4.84816 | 5910 ft | 262 kts | 296° |
| 2026-04-25 13:28 | 50.46200 | 4.82269 | 5624 ft | 256 kts | 296° |
| 2026-04-25 13:29 | 50.46965 | 4.79779 | 5344 ft | 251 kts | 296° |
| 2026-04-25 13:29 | 50.47714 | 4.77331 | 5068 ft | 246 kts | 296° |
| 2026-04-25 13:29 | 50.48449 | 4.74927 | 4785 ft | 242 kts | 296° |
| 2026-04-25 13:30 | 50.49879 | 4.70265 | 4219 ft | 236 kts | 297° |
| 2026-04-25 13:30 | 50.50594 | 4.67935 | 3934 ft | 232 kts | 297° |
| 2026-04-25 13:30 | 50.51237 | 4.65666 | 3662 ft | 229 kts | 286° |
| 2026-04-25 13:31 | 50.50545 | 4.60910 | 2686 ft | 227 kts | 246° |
| 2026-04-25 13:31 | 50.49875 | 4.58706 | 2268 ft | 213 kts | 246° |
| 2026-04-25 13:31 | 50.49292 | 4.56717 | 2011 ft | 194 kts | 248° |
| 2026-04-25 13:31 | 50.48756 | 4.54863 | 1724 ft | 180 kts | 247° |
| 2026-04-25 13:32 | 50.48262 | 4.53159 | 1488 ft | 163 kts | 249° |
| 2026-04-25 13:32 | 50.47813 | 4.51604 | 1278 ft | 152 kts | 249° |
| 2026-04-25 13:32 | 50.47389 | 4.50137 | 1078 ft | 143 kts | 248° |
| 2026-04-25 13:32 | 50.46985 | 4.48711 | 849 ft | 144 kts | 250° |
| 2026-04-25 13:33 | 50.46571 | 4.47295 | 656 ft | 142 kts | 249° |
| 2026-04-25 13:33 | 50.46192 | 4.45981 | 619 ft | 104 kts | 245° |
| 2026-04-25 13:33 | 50.46017 | 4.45383 | 627 ft | 17 kts | 244° |
| 2026-04-25 13:33 | 50.45981 | 4.45270 | 620 ft | 21 kts | 243° |
| 2026-04-25 13:34 | 50.45895 | 4.44972 | 623 ft | 23 kts | 245° |
| 2026-04-25 13:34 | 50.45930 | 4.44786 | 626 ft | 20 kts | 334° |
| 2026-04-25 13:34 | 50.46043 | 4.44857 | 628 ft | 20 kts | 63° |
| 2026-04-25 13:34 | 50.46106 | 4.45067 | 623 ft | 22 kts | 65° |
| 2026-04-25 13:35 | 50.46165 | 4.45284 | 626 ft | 22 kts | 67° |
| 2026-04-25 13:35 | 50.46235 | 4.45520 | 622 ft | 25 kts | 65° |
| 2026-04-25 13:35 | 50.46311 | 4.45787 | 606 ft | 25 kts | 66° |
| 2026-04-25 13:35 | 50.46359 | 4.45943 | 598 ft | 0 kts | 64° |
| 2026-04-25 13:36 | 50.46368 | 4.45973 | 596 ft | 7 kts | 66° |
| 2026-04-25 13:36 | 50.46402 | 4.46098 | 589 ft | 17 kts | 65° |
| 2026-04-25 13:36 | 50.46461 | 4.46297 | 584 ft | 22 kts | 66° |
| 2026-04-25 13:36 | 50.46517 | 4.46498 | 582 ft | 6 kts | 65° |
| 2026-04-25 13:37 | 50.46523 | 4.46517 | 582 ft | 7 kts | 63° |
| 2026-04-25 13:37 | 50.46610 | 4.46525 | 582 ft | 15 kts | 345° |
| 2026-04-25 13:37 | 50.46675 | 4.46638 | 583 ft | 17 kts | 64° |
| 2026-04-25 13:37 | 50.46737 | 4.46833 | 582 ft | 22 kts | 63° |
| 2026-04-25 13:38 | 50.46790 | 4.46952 | 582 ft | 9 kts | 338° |
| 2026-04-25 13:38 | 50.46822 | 4.46929 | 582 ft | 0 kts | 333° |
| 2026-04-25 13:38 | 50.46824 | 4.46927 | 582 ft | 0 kts | 334° |
| 2026-04-25 13:40 | 50.46825 | 4.46927 | 580 ft | 0 kts | 334° |